Otwell, Indiana
Current Conditions -  °F | °C
As of 2:35 PM on Sunday 25 Jan 2015 (Local Time) from KHNB Reporting Station
Overcast Overcast  
Wind Chill: 36°   Ceiling: 2700
Heat Index: 41°   Visibility: 8mi
Dew Point: 37°   Wind: 8mph
Humidity: 87%   Direction: 170°S
Pressure: 29.61"   Gusts: NA
Location:  38.45°N, 87.09°W
Report Text: KHNB 252035Z AUTO 17007KT 8SM FEW015 BKN027 OVC034 05/03 A2961 RMK AO1 P0003
Loading
Personal Weather Stations






























Interactive Weather Map New forecast layout! Learn more

10-Day Weather Forecast

Advertisements
Track Severe Weather on mobile